createdAt,value
2022-09-12T00:01:53.958Z,13.40
2022-09-12T00:04:21.242Z,13.50
2022-09-12T00:06:48.337Z,13.50
2022-09-12T00:09:15.819Z,13.60
2022-09-12T00:11:44.727Z,13.60
2022-09-12T00:14:14.540Z,13.70
2022-09-12T00:16:41.931Z,13.70
2022-09-12T00:19:09.431Z,13.70
2022-09-12T00:21:37.515Z,13.70
2022-09-12T00:24:04.884Z,13.80
2022-09-12T00:26:32.438Z,13.80
2022-09-12T00:29:00.064Z,13.70
2022-09-12T00:31:27.482Z,13.70
2022-09-12T00:33:56.614Z,13.70
2022-09-12T00:36:24.599Z,13.80
2022-09-12T00:38:52.100Z,13.60
2022-09-12T00:41:21.530Z,13.60
2022-09-12T00:43:53.920Z,13.70
2022-09-12T00:46:30.714Z,13.60
2022-09-12T00:49:42.309Z,13.60
2022-09-12T00:52:11.627Z,13.60
2022-09-12T00:55:09.059Z,13.60
2022-09-12T00:57:52.343Z,13.50
2022-09-12T01:00:21.148Z,13.60
2022-09-12T01:02:53.886Z,13.70
2022-09-12T01:05:21.559Z,13.70
2022-09-12T01:07:50.279Z,13.60
2022-09-12T01:10:17.582Z,13.80
2022-09-12T01:12:44.793Z,13.80
2022-09-12T01:15:12.332Z,13.80
2022-09-12T01:18:02.304Z,13.90
2022-09-12T01:20:33.188Z,13.90
2022-09-12T01:23:10.397Z,13.80
2022-09-12T01:25:42.189Z,13.70
2022-09-12T01:28:12.411Z,13.80
2022-09-12T01:31:14.057Z,13.80
2022-09-12T01:33:59.116Z,13.70
2022-09-12T01:36:43.137Z,13.50
2022-09-12T01:39:27.024Z,13.60
2022-09-12T01:42:07.425Z,13.50
2022-09-12T01:44:40.114Z,13.50
2022-09-12T01:47:37.788Z,13.70
2022-09-12T01:50:18.870Z,13.60
2022-09-12T01:52:52.248Z,13.70
2022-09-12T01:55:32.931Z,13.70
2022-09-12T01:58:04.402Z,13.60
2022-09-12T02:00:35.996Z,13.60
2022-09-12T02:03:12.909Z,13.60
2022-09-12T02:05:43.262Z,13.50
2022-09-12T02:08:26.399Z,13.60
2022-09-12T02:11:13.727Z,13.60
2022-09-12T02:13:43.738Z,13.50
2022-09-12T02:16:13.982Z,13.50
2022-09-12T02:18:45.092Z,13.40
2022-09-12T02:21:12.387Z,13.30
2022-09-12T02:23:41.847Z,13.10
2022-09-12T02:26:12.955Z,13.30
2022-09-12T02:28:42.472Z,13.30
2022-09-12T02:31:27.860Z,13.30
2022-09-12T02:34:16.227Z,13.20
2022-09-12T02:37:18.537Z,13.30
2022-09-12T02:39:46.052Z,13.30
2022-09-12T02:42:13.239Z,13.20
2022-09-12T02:44:40.483Z,13.20
2022-09-12T02:47:13.384Z,13.20
2022-09-12T02:49:40.550Z,13.10
2022-09-12T02:52:07.898Z,13.10
2022-09-12T02:54:35.014Z,13.10
2022-09-12T02:57:02.500Z,12.90
2022-09-12T02:59:29.829Z,12.80
2022-09-12T03:02:14.200Z,12.80
2022-09-12T03:05:00.658Z,12.90
2022-09-12T03:07:45.914Z,12.80
2022-09-12T03:10:35.233Z,12.90
2022-09-12T03:13:02.690Z,12.80
2022-09-12T03:15:29.911Z,12.80
2022-09-12T03:18:17.996Z,12.70
2022-09-12T03:20:46.823Z,12.60
2022-09-12T03:23:22.908Z,12.60
2022-09-12T03:25:57.757Z,12.60
2022-09-12T03:28:25.097Z,12.50
2022-09-12T03:30:53.844Z,12.50
2022-09-12T03:33:21.989Z,12.50
2022-09-12T03:35:50.236Z,12.60
2022-09-12T03:38:17.604Z,12.50
2022-09-12T03:40:45.377Z,12.50
2022-09-12T03:43:12.740Z,12.30
2022-09-12T03:45:40.089Z,12.20
2022-09-12T03:48:07.592Z,12.20
2022-09-12T03:50:34.806Z,12.20
2022-09-12T03:53:03.166Z,12.00
2022-09-12T03:55:31.298Z,12.10
2022-09-12T03:57:58.567Z,12.10
2022-09-12T04:00:25.992Z,12.10
2022-09-12T04:02:57.303Z,12.10
2022-09-12T04:05:25.067Z,12.10
2022-09-12T04:07:52.538Z,12.00
2022-09-12T04:10:19.770Z,12.00
2022-09-12T04:12:46.941Z,12.10
2022-09-12T04:15:14.185Z,12.10
2022-09-12T04:17:41.492Z,12.00
2022-09-12T04:20:08.923Z,11.90
2022-09-12T04:22:36.346Z,11.90
2022-09-12T04:25:03.815Z,11.90
2022-09-12T04:27:31.430Z,11.70
2022-09-12T04:29:58.805Z,11.80
2022-09-12T04:32:25.994Z,11.70
2022-09-12T04:34:53.252Z,11.70
2022-09-12T04:37:20.460Z,11.80
2022-09-12T04:39:49.432Z,11.80
2022-09-12T04:42:17.112Z,12.00
2022-09-12T04:44:44.463Z,11.90
2022-09-12T04:47:11.817Z,12.00
2022-09-12T04:49:39.053Z,12.00
2022-09-12T04:52:06.569Z,11.90
2022-09-12T04:54:34.595Z,11.80
2022-09-12T04:57:02.327Z,11.80
2022-09-12T04:59:29.685Z,12.00
2022-09-12T05:01:57.219Z,12.00
2022-09-12T05:04:24.584Z,11.90
2022-09-12T05:06:52.061Z,12.00
2022-09-12T05:09:19.234Z,11.90
2022-09-12T05:14:34.410Z,12.10
2022-09-12T05:17:02.190Z,12.10
2022-09-12T05:19:30.549Z,12.00
2022-09-12T05:21:58.246Z,12.00
2022-09-12T05:24:25.555Z,12.00
2022-09-12T05:26:52.837Z,12.10
2022-09-12T05:29:20.397Z,12.20
2022-09-12T05:31:50.363Z,12.20
2022-09-12T05:34:17.891Z,12.30
2022-09-12T05:36:45.102Z,12.20
2022-09-12T05:39:12.559Z,12.10
2022-09-12T05:41:39.910Z,12.30
2022-09-12T05:44:07.644Z,12.30
2022-09-12T05:46:39.528Z,12.40
2022-09-12T05:49:11.013Z,12.50
2022-09-12T05:51:39.884Z,12.50
2022-09-12T05:54:08.148Z,12.60
2022-09-12T05:56:39.137Z,12.60
2022-09-12T05:59:08.329Z,12.50
2022-09-12T06:01:36.157Z,12.60
2022-09-12T06:04:04.941Z,12.60
2022-09-12T06:06:32.609Z,12.70
2022-09-12T06:09:01.409Z,12.80
2022-09-12T06:11:31.333Z,12.80
2022-09-12T06:13:58.659Z,12.80
2022-09-12T06:16:30.643Z,12.80
2022-09-12T06:18:59.747Z,12.90
2022-09-12T06:21:27.169Z,13.00
2022-09-12T06:23:59.016Z,13.10
2022-09-12T06:26:26.323Z,13.10
2022-09-12T06:28:54.599Z,13.00
2022-09-12T06:31:33.408Z,13.10
2022-09-12T06:34:05.426Z,13.00
2022-09-12T06:36:42.950Z,13.10
2022-09-12T06:39:17.601Z,13.10
2022-09-12T06:41:45.124Z,13.20
2022-09-12T06:44:17.087Z,13.30
2022-09-12T06:46:44.650Z,13.50
2022-09-12T06:49:12.261Z,13.50
2022-09-12T06:51:39.762Z,13.70
2022-09-12T06:54:07.202Z,13.80
2022-09-12T06:56:34.693Z,14.00
2022-09-12T06:59:02.023Z,14.10
2022-09-12T07:01:31.240Z,14.20
2022-09-12T07:04:00.327Z,14.40
2022-09-12T07:06:32.233Z,14.60
2022-09-12T07:09:00.345Z,14.90
2022-09-12T07:11:32.227Z,14.90
2022-09-12T07:14:00.502Z,15.20
2022-09-12T07:16:28.009Z,15.20
2022-09-12T07:18:56.592Z,15.50
2022-09-12T07:21:24.063Z,15.60
2022-09-12T07:23:58.224Z,15.70
2022-09-12T07:26:27.860Z,16.10
2022-09-12T07:29:07.854Z,16.30
2022-09-12T07:31:43.168Z,16.30
2022-09-12T07:34:10.512Z,16.40
2022-09-12T07:36:37.769Z,16.60
2022-09-12T07:39:05.076Z,17.00
2022-09-12T07:41:34.121Z,17.00
2022-09-12T07:44:02.408Z,17.20
2022-09-12T07:46:30.086Z,17.10
2022-09-12T07:48:57.947Z,17.20
2022-09-12T07:51:25.559Z,17.50
2022-09-12T07:53:53.109Z,17.70
2022-09-12T07:56:20.609Z,17.90
2022-09-12T07:58:47.853Z,17.90
2022-09-12T08:01:16.568Z,17.80
2022-09-12T08:03:44.778Z,17.90
2022-09-12T08:06:23.847Z,18.10
2022-09-12T08:08:51.560Z,18.30
2022-09-12T08:11:19.734Z,18.20
2022-09-12T08:13:50.570Z,18.30
2022-09-12T08:16:23.761Z,18.30
2022-09-12T08:18:51.446Z,18.50
2022-09-12T08:21:23.256Z,18.60
2022-09-12T08:23:54.996Z,18.70
2022-09-12T08:26:22.519Z,18.70
2022-09-12T08:28:49.883Z,18.60
2022-09-12T08:31:18.556Z,18.50
2022-09-12T08:33:46.023Z,18.60
2022-09-12T08:36:18.040Z,18.90
2022-09-12T08:38:46.097Z,18.80
2022-09-12T08:41:19.340Z,18.80
2022-09-12T08:44:11.742Z,19.00
2022-09-12T08:46:41.548Z,19.40
2022-09-12T08:49:10.590Z,19.30
2022-09-12T08:51:38.358Z,19.40
2022-09-12T08:54:19.153Z,19.50
2022-09-12T08:56:46.571Z,19.60
2022-09-12T08:59:13.885Z,19.40
2022-09-12T09:01:45.727Z,19.40
2022-09-12T09:04:29.233Z,18.90
2022-09-12T09:07:35.276Z,18.90
2022-09-12T09:10:33.560Z,18.90
2022-09-12T09:13:34.915Z,18.70
2022-09-12T09:16:15.766Z,18.60
2022-09-12T09:18:43.589Z,18.50
2022-09-12T09:21:27.069Z,18.60
2022-09-12T09:24:12.052Z,18.80
2022-09-12T09:26:58.871Z,19.00
2022-09-12T09:29:33.643Z,19.10
2022-09-12T09:32:01.399Z,19.40
2022-09-12T09:34:32.084Z,19.60
2022-09-12T09:37:16.243Z,19.60
2022-09-12T09:39:50.211Z,19.40
2022-09-12T09:42:54.242Z,19.40
2022-09-12T09:45:24.213Z,19.70
2022-09-12T09:47:58.219Z,19.60
2022-09-12T09:50:25.757Z,19.50
2022-09-12T09:52:52.994Z,19.30
2022-09-12T09:55:23.264Z,19.30
2022-09-12T09:57:52.538Z,19.00
2022-09-12T10:00:32.027Z,19.10
2022-09-12T10:03:03.445Z,19.20
2022-09-12T10:05:31.499Z,19.30
2022-09-12T10:07:58.823Z,19.70
2022-09-12T10:10:26.117Z,19.90
2022-09-12T10:13:07.706Z,20.00
2022-09-12T10:15:35.312Z,19.90
2022-09-12T10:18:03.418Z,20.10
2022-09-12T10:20:40.837Z,20.30
2022-09-12T10:23:20.023Z,20.40
2022-09-12T10:25:54.319Z,20.50
2022-09-12T10:28:31.246Z,20.50
2022-09-12T10:31:00.098Z,20.60
2022-09-12T10:33:27.565Z,20.50
2022-09-12T10:35:55.350Z,20.60
2022-09-12T10:38:25.334Z,20.70
2022-09-12T10:41:00.705Z,20.40
2022-09-12T10:43:29.812Z,20.40
2022-09-12T10:46:20.848Z,20.80
2022-09-12T10:49:11.407Z,20.70
2022-09-12T10:51:38.719Z,20.60
2022-09-12T10:54:08.104Z,20.60
2022-09-12T10:57:04.048Z,20.70
2022-09-12T10:59:40.486Z,20.70
2022-09-12T11:02:30.234Z,20.30
2022-09-12T11:05:29.427Z,20.50
2022-09-12T11:08:09.580Z,20.60
2022-09-12T11:10:58.246Z,20.90
2022-09-12T11:13:57.104Z,20.90
2022-09-12T11:16:43.187Z,21.00
2022-09-12T11:19:19.394Z,20.90
2022-09-12T11:22:00.063Z,20.90
2022-09-12T11:24:35.746Z,20.70
2022-09-12T11:27:05.740Z,20.70
2022-09-12T11:29:55.218Z,21.00
2022-09-12T11:32:31.487Z,20.90
2022-09-12T11:35:27.689Z,21.20
2022-09-12T11:38:11.486Z,21.30
2022-09-12T11:40:56.236Z,21.70
2022-09-12T11:43:32.367Z,21.90
2022-09-12T11:46:01.865Z,21.80
2022-09-12T11:48:47.609Z,21.50
2022-09-12T11:51:42.435Z,21.30
2022-09-12T11:54:20.869Z,20.90
2022-09-12T11:56:48.249Z,20.80
2022-09-12T11:59:44.481Z,20.40
2022-09-12T12:02:17.968Z,19.80
2022-09-12T12:05:05.467Z,19.40
2022-09-12T12:07:45.427Z,19.20
2022-09-12T12:10:43.140Z,19.10
2022-09-12T12:13:19.971Z,19.10
2022-09-12T12:16:14.223Z,19.10
2022-09-12T12:18:41.638Z,19.10
2022-09-12T12:21:29.760Z,19.20
2022-09-12T12:24:08.893Z,19.30
2022-09-12T12:26:41.633Z,19.30
2022-09-12T12:29:44.466Z,19.30
2022-09-12T12:32:11.926Z,19.20
2022-09-12T12:34:42.866Z,19.00
2022-09-12T12:37:22.706Z,19.00
2022-09-12T12:39:55.790Z,19.10
2022-09-12T12:42:34.896Z,19.30
2022-09-12T12:45:04.501Z,19.40
2022-09-12T12:47:41.269Z,19.40
2022-09-12T12:50:12.545Z,19.60
2022-09-12T12:52:59.540Z,19.50
2022-09-12T12:55:45.063Z,19.60
2022-09-12T12:58:30.865Z,19.50
2022-09-12T13:01:18.424Z,19.70
2022-09-12T13:03:53.011Z,19.60
2022-09-12T13:06:40.260Z,19.50
2022-09-12T13:09:44.574Z,19.40
2022-09-12T13:12:23.450Z,19.40
2022-09-12T13:14:52.057Z,19.50
2022-09-12T13:17:26.669Z,19.70
2022-09-12T13:20:27.977Z,19.80
2022-09-12T13:22:56.102Z,19.80
2022-09-12T13:25:30.193Z,19.80
2022-09-12T13:28:12.394Z,19.80
2022-09-12T13:30:43.872Z,19.90
2022-09-12T13:33:22.592Z,19.80
2022-09-12T13:36:28.215Z,19.70
2022-09-12T13:39:20.549Z,19.70
2022-09-12T13:42:19.725Z,19.70
2022-09-12T13:45:10.190Z,19.70
2022-09-12T13:47:39.544Z,19.80
2022-09-12T13:50:08.298Z,19.60
2022-09-12T13:52:36.317Z,19.70
2022-09-12T13:55:07.696Z,19.70
2022-09-12T13:57:39.321Z,19.80
2022-09-12T14:00:14.387Z,19.60
2022-09-12T14:02:41.664Z,19.50
2022-09-12T14:05:24.558Z,19.50
2022-09-12T14:07:58.618Z,19.50
2022-09-12T14:10:33.244Z,19.60
2022-09-12T14:13:25.699Z,19.50
2022-09-12T14:15:54.065Z,19.60
2022-09-12T14:18:36.633Z,19.60
2022-09-12T14:21:30.481Z,19.60
2022-09-12T14:23:58.004Z,19.50
2022-09-12T14:26:25.281Z,19.50
2022-09-12T14:28:52.509Z,19.60
2022-09-12T14:31:24.590Z,19.50
2022-09-12T14:33:53.289Z,19.70
2022-09-12T14:36:52.132Z,19.60
2022-09-12T14:39:42.262Z,19.60
2022-09-12T14:42:14.727Z,19.70
2022-09-12T14:44:42.620Z,19.70
2022-09-12T14:47:28.946Z,19.70
2022-09-12T14:49:56.286Z,20.00
2022-09-12T14:52:26.436Z,19.90
2022-09-12T14:55:01.979Z,19.80
2022-09-12T14:57:33.410Z,19.80
2022-09-12T15:00:12.644Z,19.90
2022-09-12T15:02:43.683Z,20.00
2022-09-12T15:05:13.804Z,20.10
2022-09-12T15:07:42.929Z,20.00
2022-09-12T15:10:31.219Z,20.20
2022-09-12T15:13:12.112Z,20.10
2022-09-12T15:15:40.109Z,20.00
2022-09-12T15:18:07.619Z,20.00
2022-09-12T15:20:36.902Z,19.80
2022-09-12T15:23:04.537Z,19.80
2022-09-12T15:25:31.770Z,19.80
2022-09-12T15:27:59.305Z,19.80
2022-09-12T15:30:26.402Z,19.70
2022-09-12T15:32:53.748Z,19.70
2022-09-12T15:35:25.117Z,19.70
2022-09-12T15:37:52.356Z,19.50
2022-09-12T15:40:19.581Z,19.60
2022-09-12T15:42:46.873Z,19.60
2022-09-12T15:45:22.870Z,19.50
2022-09-12T15:47:50.061Z,19.60
2022-09-12T15:50:17.318Z,19.60
2022-09-12T15:52:44.638Z,19.50
2022-09-12T15:55:29.946Z,19.50
2022-09-12T15:57:57.030Z,19.40
2022-09-12T16:00:24.438Z,19.30
2022-09-12T16:02:52.854Z,19.30
2022-09-12T16:05:25.306Z,19.30
2022-09-12T16:07:56.450Z,19.00
2022-09-12T16:10:26.309Z,19.00
2022-09-12T16:12:53.534Z,18.90
2022-09-12T16:15:22.924Z,18.90
2022-09-12T16:17:50.385Z,18.80
2022-09-12T16:20:19.735Z,18.80
2022-09-12T16:22:46.950Z,18.70
2022-09-12T16:25:14.586Z,18.70
2022-09-12T16:27:42.398Z,18.60
2022-09-12T16:30:10.206Z,18.40
2022-09-12T16:32:37.641Z,18.20
2022-09-12T16:35:05.195Z,18.10
2022-09-12T16:37:34.604Z,18.00
2022-09-12T16:40:03.093Z,18.10
2022-09-12T16:42:30.568Z,18.00
2022-09-12T16:44:58.119Z,18.00
2022-09-12T16:47:25.390Z,17.90
2022-09-12T16:49:53.199Z,17.90
2022-09-12T16:52:20.618Z,17.90
2022-09-12T16:54:47.853Z,17.80
2022-09-12T16:57:15.101Z,17.80
2022-09-12T16:59:42.433Z,17.80
2022-09-12T17:02:16.186Z,17.60
2022-09-12T17:04:43.323Z,17.50
2022-09-12T17:07:27.743Z,17.50
2022-09-12T17:10:23.143Z,17.40
2022-09-12T17:12:50.322Z,17.40
2022-09-12T17:15:17.603Z,17.30
2022-09-12T17:17:46.103Z,17.20
2022-09-12T17:20:13.224Z,16.90
2022-09-12T17:22:40.544Z,16.80
2022-09-12T17:25:08.102Z,16.60
2022-09-12T17:27:35.123Z,16.50
2022-09-12T17:30:02.404Z,16.40
2022-09-12T17:32:29.462Z,16.30
2022-09-12T17:34:56.922Z,16.20
2022-09-12T17:37:24.347Z,16.30
2022-09-12T17:39:51.812Z,16.20
2022-09-12T17:42:20.243Z,16.10
2022-09-12T17:44:47.844Z,16.00
2022-09-12T17:47:14.882Z,15.90
2022-09-12T17:49:41.983Z,15.80
2022-09-12T17:52:09.202Z,15.90
2022-09-12T17:54:36.263Z,15.80
2022-09-12T17:57:05.225Z,15.50
2022-09-12T17:59:32.317Z,15.50
2022-09-12T18:02:15.868Z,15.40
2022-09-12T18:04:47.020Z,15.40
2022-09-12T18:07:15.211Z,15.30
2022-09-12T18:09:42.381Z,15.10
2022-09-12T18:12:09.627Z,15.00
2022-09-12T18:14:37.771Z,15.00
2022-09-12T18:17:07.121Z,14.90
2022-09-12T18:19:34.652Z,14.90
2022-09-12T18:22:02.472Z,15.00
2022-09-12T18:24:29.757Z,15.00
2022-09-12T18:26:56.944Z,14.80
2022-09-12T18:29:24.993Z,14.60
2022-09-12T18:31:52.482Z,14.40
2022-09-12T18:34:19.738Z,14.60
2022-09-12T18:36:50.037Z,14.60
2022-09-12T18:39:17.988Z,14.60
2022-09-12T18:41:45.176Z,14.60
2022-09-12T18:44:12.550Z,14.70
2022-09-12T18:46:39.802Z,14.50
2022-09-12T18:49:07.854Z,14.50
2022-09-12T18:51:36.132Z,14.50
2022-09-12T18:54:08.976Z,14.40
2022-09-12T18:56:37.875Z,14.00
2022-09-12T18:59:05.919Z,14.00
2022-09-12T19:01:35.260Z,13.90
2022-09-12T19:04:05.105Z,14.00
2022-09-12T19:06:37.173Z,13.80
2022-09-12T19:09:07.824Z,14.00
2022-09-12T19:11:36.599Z,13.90
2022-09-12T19:14:03.818Z,13.80
2022-09-12T19:16:31.158Z,13.80
2022-09-12T19:18:58.675Z,13.80
2022-09-12T19:21:28.348Z,13.90
2022-09-12T19:24:03.656Z,13.90
2022-09-12T19:26:31.000Z,13.70
2022-09-12T19:28:58.758Z,13.70
2022-09-12T19:31:26.245Z,13.50
2022-09-12T19:33:53.840Z,13.50
2022-09-12T19:39:09.393Z,13.40
2022-09-12T19:41:36.674Z,13.50
2022-09-12T19:44:04.531Z,13.40
2022-09-12T19:46:31.903Z,13.50
2022-09-12T19:48:59.276Z,13.30
2022-09-12T19:51:26.604Z,13.30
2022-09-12T19:53:53.953Z,13.30
2022-09-12T19:56:21.214Z,13.30
2022-09-12T19:58:53.461Z,13.30
2022-09-12T20:01:25.130Z,13.20
2022-09-12T20:03:55.249Z,13.20
2022-09-12T20:06:22.741Z,13.40
2022-09-12T20:08:50.337Z,13.40
2022-09-12T20:11:19.194Z,13.30
2022-09-12T20:13:46.391Z,13.30
2022-09-12T20:16:21.613Z,13.30
2022-09-12T20:18:52.774Z,13.30
2022-09-12T20:21:20.751Z,13.20
2022-09-12T20:23:47.824Z,13.30
2022-09-12T20:26:15.302Z,13.40
2022-09-12T20:28:42.509Z,13.40
2022-09-12T20:31:14.264Z,13.50
2022-09-12T20:33:41.761Z,13.40
2022-09-12T20:36:13.130Z,13.20
2022-09-12T20:38:40.776Z,13.10
2022-09-12T20:41:09.817Z,13.20
2022-09-12T20:43:38.737Z,13.20
2022-09-12T20:46:07.251Z,13.10
2022-09-12T20:48:34.266Z,13.10
2022-09-12T20:51:01.334Z,13.10
2022-09-12T20:53:32.937Z,13.20
2022-09-12T20:56:02.244Z,13.10
2022-09-12T20:58:29.850Z,13.00
2022-09-12T21:00:57.221Z,13.00
2022-09-12T21:03:25.670Z,12.90
2022-09-12T21:05:52.620Z,12.90
2022-09-12T21:08:19.812Z,12.90
2022-09-12T21:10:47.049Z,13.00
2022-09-12T21:13:14.070Z,12.90
2022-09-12T21:15:41.382Z,12.80
2022-09-12T21:18:08.410Z,12.80
2022-09-12T21:20:35.710Z,12.80
2022-09-12T21:23:02.832Z,12.70
2022-09-12T21:25:30.822Z,12.60
2022-09-12T21:27:58.484Z,12.60
2022-09-12T21:30:25.977Z,12.60
2022-09-12T21:32:53.448Z,12.60
2022-09-12T21:35:20.525Z,12.50
2022-09-12T21:37:47.743Z,12.50
2022-09-12T21:40:15.095Z,12.30
2022-09-12T21:42:43.283Z,12.40
2022-09-12T21:45:10.802Z,12.30
2022-09-12T21:47:39.409Z,12.40
2022-09-12T21:50:09.748Z,12.30
2022-09-12T21:52:37.081Z,12.30
2022-09-12T21:55:05.312Z,12.20
2022-09-12T21:57:35.539Z,12.20
2022-09-12T22:00:04.030Z,12.10
2022-09-12T22:02:31.311Z,12.10
2022-09-12T22:04:58.321Z,12.10
2022-09-12T22:07:25.932Z,12.10
2022-09-12T22:09:53.322Z,12.10
2022-09-12T22:12:20.495Z,12.00
2022-09-12T22:14:47.685Z,11.80
2022-09-12T22:17:14.761Z,11.60
2022-09-12T22:19:42.065Z,11.50
2022-09-12T22:22:41.687Z,11.30
2022-09-12T22:25:11.393Z,11.40
2022-09-12T22:27:39.616Z,11.60
2022-09-12T22:30:07.847Z,11.50
2022-09-12T22:32:37.309Z,11.60
2022-09-12T22:35:05.166Z,11.60
2022-09-12T22:37:32.363Z,11.50
2022-09-12T22:40:00.305Z,11.60
2022-09-12T22:42:27.531Z,11.50
2022-09-12T22:44:54.760Z,11.50
2022-09-12T22:47:21.884Z,11.50
2022-09-12T22:49:48.939Z,11.50
2022-09-12T22:52:16.695Z,11.30
2022-09-12T22:54:43.881Z,11.20
2022-09-12T22:57:10.987Z,11.10
2022-09-12T22:59:38.260Z,11.00
2022-09-12T23:02:05.824Z,11.00
2022-09-12T23:04:33.127Z,10.90
2022-09-12T23:07:00.750Z,10.90
2022-09-12T23:09:30.044Z,11.00
2022-09-12T23:12:00.465Z,11.00
2022-09-12T23:14:27.488Z,11.10
2022-09-12T23:16:55.048Z,11.30
2022-09-12T23:19:22.102Z,11.10
2022-09-12T23:21:49.218Z,11.00
2022-09-12T23:24:16.370Z,10.90
2022-09-12T23:26:43.662Z,10.90
2022-09-12T23:29:11.242Z,11.00
2022-09-12T23:31:38.369Z,10.90
2022-09-12T23:34:09.363Z,10.90
2022-09-12T23:36:36.996Z,10.80
2022-09-12T23:39:04.389Z,10.60
2022-09-12T23:41:31.793Z,10.50
2022-09-12T23:43:58.946Z,10.40
2022-09-12T23:46:26.045Z,10.50
2022-09-12T23:48:56.058Z,10.40
2022-09-12T23:51:23.353Z,10.50
2022-09-12T23:53:50.643Z,10.60
2022-09-12T23:56:17.955Z,10.60
2022-09-12T23:58:45.178Z,10.40
